sensor_id;sensor_type;location;lat;lon;timestamp;P1;durP1;ratioP1;P2;durP2;ratioP2
49566;SDS011;35472;50.514;30.448;2022-09-29T00:00:49;6.07;;;2.80;;
49566;SDS011;35472;50.514;30.448;2022-09-29T00:03:16;2.92;;;2.58;;
49566;SDS011;35472;50.514;30.448;2022-09-29T00:05:49;2.60;;;1.90;;
49566;SDS011;35472;50.514;30.448;2022-09-29T00:08:15;2.63;;;2.17;;
49566;SDS011;35472;50.514;30.448;2022-09-29T00:10:42;3.20;;;2.88;;
49566;SDS011;35472;50.514;30.448;2022-09-29T00:13:07;4.70;;;2.05;;
49566;SDS011;35472;50.514;30.448;2022-09-29T00:15:32;3.15;;;2.58;;
49566;SDS011;35472;50.514;30.448;2022-09-29T00:17:58;2.35;;;1.98;;
49566;SDS011;35472;50.514;30.448;2022-09-29T00:20:24;2.63;;;2.08;;
49566;SDS011;35472;50.514;30.448;2022-09-29T00:22:49;2.50;;;2.17;;
49566;SDS011;35472;50.514;30.448;2022-09-29T00:25:16;2.63;;;2.42;;
49566;SDS011;35472;50.514;30.448;2022-09-29T00:27:42;5.25;;;2.30;;
49566;SDS011;35472;50.514;30.448;2022-09-29T00:30:07;2.40;;;2.20;;
49566;SDS011;35472;50.514;30.448;2022-09-29T00:32:33;3.05;;;2.30;;
49566;SDS011;35472;50.514;30.448;2022-09-29T00:34:58;2.63;;;2.33;;
49566;SDS011;35472;50.514;30.448;2022-09-29T00:37:24;2.88;;;2.20;;
49566;SDS011;35472;50.514;30.448;2022-09-29T00:39:50;2.50;;;1.73;;
49566;SDS011;35472;50.514;30.448;2022-09-29T00:42:16;4.55;;;2.53;;
49566;SDS011;35472;50.514;30.448;2022-09-29T00:47:31;2.03;;;1.83;;
49566;SDS011;35472;50.514;30.448;2022-09-29T00:50:04;2.67;;;2.42;;
49566;SDS011;35472;50.514;30.448;2022-09-29T00:52:43;3.03;;;2.45;;
49566;SDS011;35472;50.514;30.448;2022-09-29T00:55:18;2.83;;;1.98;;
49566;SDS011;35472;50.514;30.448;2022-09-29T00:57:57;3.65;;;2.45;;
49566;SDS011;35472;50.514;30.448;2022-09-29T01:00:27;2.20;;;1.80;;
49566;SDS011;35472;50.514;30.448;2022-09-29T01:03:00;2.70;;;2.15;;
49566;SDS011;35472;50.514;30.448;2022-09-29T01:05:32;2.33;;;1.90;;
49566;SDS011;35472;50.514;30.448;2022-09-29T01:08:01;2.83;;;1.92;;
49566;SDS011;35472;50.514;30.448;2022-09-29T01:10:35;1.90;;;1.70;;
49566;SDS011;35472;50.514;30.448;2022-09-29T01:13:02;2.50;;;2.30;;
49566;SDS011;35472;50.514;30.448;2022-09-29T01:15:28;2.10;;;2.00;;
49566;SDS011;35472;50.514;30.448;2022-09-29T01:17:54;4.15;;;2.28;;
49566;SDS011;35472;50.514;30.448;2022-09-29T01:20:20;3.17;;;2.22;;
49566;SDS011;35472;50.514;30.448;2022-09-29T01:31:01;1.88;;;1.77;;
49566;SDS011;35472;50.514;30.448;2022-09-29T01:33:46;3.80;;;1.65;;
49566;SDS011;35472;50.514;30.448;2022-09-29T01:36:28;2.00;;;1.70;;
49566;SDS011;35472;50.514;30.448;2022-09-29T01:39:09;3.65;;;2.25;;
49566;SDS011;35472;50.514;30.448;2022-09-29T01:41:52;4.50;;;2.20;;
49566;SDS011;35472;50.514;30.448;2022-09-29T01:44:35;2.60;;;2.40;;
49566;SDS011;35472;50.514;30.448;2022-09-29T01:47:11;2.13;;;1.90;;
49566;SDS011;35472;50.514;30.448;2022-09-29T01:49:43;2.70;;;2.05;;
49566;SDS011;35472;50.514;30.448;2022-09-29T01:57:25;3.58;;;2.28;;
49566;SDS011;35472;50.514;30.448;2022-09-29T02:00:06;2.75;;;2.33;;
49566;SDS011;35472;50.514;30.448;2022-09-29T02:02:39;4.90;;;2.42;;
49566;SDS011;35472;50.514;30.448;2022-09-29T02:05:38;3.33;;;2.80;;
49566;SDS011;35472;50.514;30.448;2022-09-29T02:08:15;3.25;;;2.20;;
49566;SDS011;35472;50.514;30.448;2022-09-29T02:10:50;2.10;;;1.90;;
49566;SDS011;35472;50.514;30.448;2022-09-29T02:13:18;2.67;;;2.05;;
49566;SDS011;35472;50.514;30.448;2022-09-29T02:15:47;2.42;;;2.17;;
49566;SDS011;35472;50.514;30.448;2022-09-29T02:18:36;1.92;;;1.73;;
49566;SDS011;35472;50.514;30.448;2022-09-29T02:21:06;2.92;;;2.55;;
49566;SDS011;35472;50.514;30.448;2022-09-29T02:23:33;2.10;;;1.90;;
49566;SDS011;35472;50.514;30.448;2022-09-29T02:25:58;5.22;;;1.55;;
49566;SDS011;35472;50.514;30.448;2022-09-29T02:28:24;1.30;;;1.20;;
49566;SDS011;35472;50.514;30.448;2022-09-29T02:30:50;1.73;;;1.63;;
49566;SDS011;35472;50.514;30.448;2022-09-29T02:33:17;2.83;;;1.67;;
49566;SDS011;35472;50.514;30.448;2022-09-29T02:35:55;2.00;;;1.80;;
49566;SDS011;35472;50.514;30.448;2022-09-29T02:46:49;2.17;;;1.98;;
49566;SDS011;35472;50.514;30.448;2022-09-29T02:49:28;3.78;;;2.28;;
49566;SDS011;35472;50.514;30.448;2022-09-29T02:57:39;1.85;;;1.75;;
49566;SDS011;35472;50.514;30.448;2022-09-29T03:00:10;2.20;;;2.00;;
49566;SDS011;35472;50.514;30.448;2022-09-29T03:02:38;2.30;;;2.10;;
49566;SDS011;35472;50.514;30.448;2022-09-29T03:05:06;2.83;;;1.95;;
49566;SDS011;35472;50.514;30.448;2022-09-29T03:07:35;2.92;;;2.60;;
49566;SDS011;35472;50.514;30.448;2022-09-29T03:10:01;1.92;;;1.83;;
49566;SDS011;35472;50.514;30.448;2022-09-29T03:12:27;2.55;;;1.98;;
49566;SDS011;35472;50.514;30.448;2022-09-29T03:14:53;2.50;;;2.30;;
49566;SDS011;35472;50.514;30.448;2022-09-29T03:17:18;3.13;;;2.25;;
49566;SDS011;35472;50.514;30.448;2022-09-29T03:19:43;2.47;;;2.25;;
49566;SDS011;35472;50.514;30.448;2022-09-29T03:22:09;2.78;;;2.17;;
49566;SDS011;35472;50.514;30.448;2022-09-29T03:24:34;5.75;;;2.65;;
49566;SDS011;35472;50.514;30.448;2022-09-29T03:27:00;2.40;;;2.20;;
49566;SDS011;35472;50.514;30.448;2022-09-29T03:29:25;3.42;;;2.85;;
49566;SDS011;35472;50.514;30.448;2022-09-29T03:31:51;3.22;;;2.22;;
49566;SDS011;35472;50.514;30.448;2022-09-29T03:34:16;4.78;;;3.13;;
49566;SDS011;35472;50.514;30.448;2022-09-29T03:36:42;3.28;;;2.75;;
49566;SDS011;35472;50.514;30.448;2022-09-29T03:39:07;2.83;;;2.28;;
49566;SDS011;35472;50.514;30.448;2022-09-29T03:41:32;12.52;;;3.83;;
49566;SDS011;35472;50.514;30.448;2022-09-29T03:43:58;3.33;;;2.67;;
49566;SDS011;35472;50.514;30.448;2022-09-29T03:46:24;2.92;;;2.03;;
49566;SDS011;35472;50.514;30.448;2022-09-29T03:48:49;2.88;;;2.67;;
49566;SDS011;35472;50.514;30.448;2022-09-29T03:51:15;4.03;;;2.53;;
49566;SDS011;35472;50.514;30.448;2022-09-29T03:53:40;4.10;;;2.33;;
49566;SDS011;35472;50.514;30.448;2022-09-29T03:56:06;4.03;;;3.42;;
49566;SDS011;35472;50.514;30.448;2022-09-29T03:58:32;3.03;;;2.72;;
49566;SDS011;35472;50.514;30.448;2022-09-29T04:00:57;3.10;;;2.90;;
49566;SDS011;35472;50.514;30.448;2022-09-29T04:03:23;3.45;;;2.72;;
49566;SDS011;35472;50.514;30.448;2022-09-29T04:05:48;5.50;;;2.97;;
49566;SDS011;35472;50.514;30.448;2022-09-29T04:08:14;3.58;;;2.72;;
49566;SDS011;35472;50.514;30.448;2022-09-29T04:10:40;3.38;;;2.90;;
49566;SDS011;35472;50.514;30.448;2022-09-29T04:13:06;4.30;;;2.55;;
49566;SDS011;35472;50.514;30.448;2022-09-29T04:15:32;3.55;;;2.70;;
49566;SDS011;35472;50.514;30.448;2022-09-29T04:17:58;3.97;;;3.00;;
49566;SDS011;35472;50.514;30.448;2022-09-29T04:20:24;4.07;;;3.17;;
49566;SDS011;35472;50.514;30.448;2022-09-29T04:22:50;3.80;;;3.42;;
49566;SDS011;35472;50.514;30.448;2022-09-29T04:25:16;4.07;;;3.63;;
49566;SDS011;35472;50.514;30.448;2022-09-29T04:27:42;3.15;;;2.88;;
49566;SDS011;35472;50.514;30.448;2022-09-29T04:30:07;6.80;;;3.13;;
49566;SDS011;35472;50.514;30.448;2022-09-29T04:32:33;5.70;;;3.40;;
49566;SDS011;35472;50.514;30.448;2022-09-29T04:34:58;3.28;;;2.97;;
49566;SDS011;35472;50.514;30.448;2022-09-29T04:37:24;4.20;;;2.78;;
49566;SDS011;35472;50.514;30.448;2022-09-29T04:39:49;9.30;;;4.28;;
49566;SDS011;35472;50.514;30.448;2022-09-29T04:42:17;2.92;;;2.60;;
49566;SDS011;35472;50.514;30.448;2022-09-29T04:44:42;4.25;;;2.75;;
49566;SDS011;35472;50.514;30.448;2022-09-29T04:47:11;3.58;;;3.28;;
49566;SDS011;35472;50.514;30.448;2022-09-29T04:49:37;8.18;;;6.70;;
49566;SDS011;35472;50.514;30.448;2022-09-29T04:52:03;6.38;;;4.13;;
49566;SDS011;35472;50.514;30.448;2022-09-29T04:54:29;6.80;;;3.60;;
49566;SDS011;35472;50.514;30.448;2022-09-29T04:56:58;6.57;;;3.70;;
49566;SDS011;35472;50.514;30.448;2022-09-29T04:59:25;4.53;;;3.33;;
49566;SDS011;35472;50.514;30.448;2022-09-29T05:01:51;4.40;;;3.40;;
49566;SDS011;35472;50.514;30.448;2022-09-29T05:04:17;6.38;;;4.07;;
49566;SDS011;35472;50.514;30.448;2022-09-29T05:06:43;4.35;;;3.95;;
49566;SDS011;35472;50.514;30.448;2022-09-29T05:09:09;4.72;;;3.08;;
49566;SDS011;35472;50.514;30.448;2022-09-29T05:11:34;4.32;;;3.92;;
49566;SDS011;35472;50.514;30.448;2022-09-29T05:14:00;4.20;;;3.72;;
49566;SDS011;35472;50.514;30.448;2022-09-29T05:16:26;5.55;;;3.78;;
49566;SDS011;35472;50.514;30.448;2022-09-29T05:18:51;4.78;;;4.22;;
49566;SDS011;35472;50.514;30.448;2022-09-29T05:21:17;8.80;;;4.88;;
49566;SDS011;35472;50.514;30.448;2022-09-29T05:23:42;5.57;;;4.80;;
49566;SDS011;35472;50.514;30.448;2022-09-29T05:26:08;8.45;;;5.38;;
49566;SDS011;35472;50.514;30.448;2022-09-29T05:28:35;9.80;;;7.47;;
49566;SDS011;35472;50.514;30.448;2022-09-29T05:31:01;10.98;;;6.55;;
49566;SDS011;35472;50.514;30.448;2022-09-29T05:33:31;11.75;;;6.97;;
49566;SDS011;35472;50.514;30.448;2022-09-29T05:35:57;12.93;;;6.13;;
49566;SDS011;35472;50.514;30.448;2022-09-29T05:38:22;10.55;;;5.88;;
49566;SDS011;35472;50.514;30.448;2022-09-29T05:40:49;8.05;;;5.43;;
49566;SDS011;35472;50.514;30.448;2022-09-29T05:43:15;8.63;;;5.85;;
49566;SDS011;35472;50.514;30.448;2022-09-29T05:45:41;13.63;;;6.80;;
49566;SDS011;35472;50.514;30.448;2022-09-29T05:48:06;11.23;;;6.07;;
49566;SDS011;35472;50.514;30.448;2022-09-29T05:50:32;7.18;;;5.75;;
49566;SDS011;35472;50.514;30.448;2022-09-29T05:53:05;6.60;;;4.90;;
49566;SDS011;35472;50.514;30.448;2022-09-29T05:55:35;15.00;;;6.47;;
49566;SDS011;35472;50.514;30.448;2022-09-29T05:58:01;5.97;;;4.72;;
49566;SDS011;35472;50.514;30.448;2022-09-29T06:00:27;8.85;;;5.13;;
49566;SDS011;35472;50.514;30.448;2022-09-29T06:02:52;8.70;;;4.57;;
49566;SDS011;35472;50.514;30.448;2022-09-29T06:05:17;4.55;;;4.15;;
49566;SDS011;35472;50.514;30.448;2022-09-29T06:07:43;4.03;;;3.33;;
49566;SDS011;35472;50.514;30.448;2022-09-29T06:10:08;3.97;;;3.10;;
49566;SDS011;35472;50.514;30.448;2022-09-29T06:12:34;4.65;;;3.97;;
49566;SDS011;35472;50.514;30.448;2022-09-29T06:15:01;4.22;;;2.67;;
49566;SDS011;35472;50.514;30.448;2022-09-29T06:17:28;4.80;;;3.25;;
49566;SDS011;35472;50.514;30.448;2022-09-29T06:19:53;4.60;;;3.60;;
49566;SDS011;35472;50.514;30.448;2022-09-29T06:22:18;8.82;;;4.60;;
49566;SDS011;35472;50.514;30.448;2022-09-29T06:24:44;4.00;;;2.88;;
49566;SDS011;35472;50.514;30.448;2022-09-29T06:27:09;3.80;;;2.95;;
49566;SDS011;35472;50.514;30.448;2022-09-29T06:29:35;4.65;;;2.90;;
49566;SDS011;35472;50.514;30.448;2022-09-29T06:32:01;3.17;;;2.60;;
49566;SDS011;35472;50.514;30.448;2022-09-29T06:34:27;3.20;;;2.63;;
49566;SDS011;35472;50.514;30.448;2022-09-29T06:36:54;3.10;;;2.72;;
49566;SDS011;35472;50.514;30.448;2022-09-29T06:39:39;6.05;;;2.50;;
49566;SDS011;35472;50.514;30.448;2022-09-29T06:42:04;5.75;;;4.32;;
49566;SDS011;35472;50.514;30.448;2022-09-29T06:44:29;4.10;;;3.00;;
49566;SDS011;35472;50.514;30.448;2022-09-29T06:46:55;5.55;;;3.95;;
49566;SDS011;35472;50.514;30.448;2022-09-29T06:49:22;5.32;;;3.53;;
49566;SDS011;35472;50.514;30.448;2022-09-29T06:51:48;5.03;;;3.30;;
49566;SDS011;35472;50.514;30.448;2022-09-29T06:54:16;4.13;;;3.45;;
49566;SDS011;35472;50.514;30.448;2022-09-29T06:56:48;8.27;;;5.55;;
49566;SDS011;35472;50.514;30.448;2022-09-29T06:59:14;11.50;;;7.05;;
49566;SDS011;35472;50.514;30.448;2022-09-29T07:01:41;10.38;;;5.82;;
49566;SDS011;35472;50.514;30.448;2022-09-29T07:04:06;12.98;;;6.15;;
49566;SDS011;35472;50.514;30.448;2022-09-29T07:06:32;9.50;;;7.55;;
49566;SDS011;35472;50.514;30.448;2022-09-29T07:08:58;9.65;;;6.57;;
49566;SDS011;35472;50.514;30.448;2022-09-29T07:11:25;12.57;;;6.10;;
49566;SDS011;35472;50.514;30.448;2022-09-29T07:13:52;5.68;;;4.60;;
49566;SDS011;35472;50.514;30.448;2022-09-29T07:16:18;6.60;;;3.80;;
49566;SDS011;35472;50.514;30.448;2022-09-29T07:18:44;5.90;;;3.75;;
49566;SDS011;35472;50.514;30.448;2022-09-29T07:21:11;7.30;;;3.63;;
49566;SDS011;35472;50.514;30.448;2022-09-29T07:23:42;5.05;;;3.40;;
49566;SDS011;35472;50.514;30.448;2022-09-29T07:26:09;2.72;;;2.25;;
49566;SDS011;35472;50.514;30.448;2022-09-29T07:28:35;3.88;;;2.63;;
49566;SDS011;35472;50.514;30.448;2022-09-29T07:31:02;2.92;;;2.63;;
49566;SDS011;35472;50.514;30.448;2022-09-29T07:33:27;4.05;;;2.80;;
49566;SDS011;35472;50.514;30.448;2022-09-29T07:35:54;4.57;;;2.83;;
49566;SDS011;35472;50.514;30.448;2022-09-29T07:38:20;5.85;;;2.72;;
49566;SDS011;35472;50.514;30.448;2022-09-29T07:40:45;5.88;;;2.25;;
49566;SDS011;35472;50.514;30.448;2022-09-29T07:43:11;3.35;;;2.55;;
49566;SDS011;35472;50.514;30.448;2022-09-29T07:45:36;5.13;;;3.03;;
49566;SDS011;35472;50.514;30.448;2022-09-29T07:48:02;5.35;;;2.88;;
49566;SDS011;35472;50.514;30.448;2022-09-29T07:50:27;4.35;;;2.67;;
49566;SDS011;35472;50.514;30.448;2022-09-29T07:52:53;5.22;;;3.08;;
49566;SDS011;35472;50.514;30.448;2022-09-29T07:55:18;3.30;;;2.47;;
49566;SDS011;35472;50.514;30.448;2022-09-29T07:57:48;3.85;;;2.10;;
49566;SDS011;35472;50.514;30.448;2022-09-29T08:00:14;4.50;;;3.15;;
49566;SDS011;35472;50.514;30.448;2022-09-29T08:02:41;5.13;;;3.17;;
49566;SDS011;35472;50.514;30.448;2022-09-29T08:05:07;6.82;;;2.92;;
49566;SDS011;35472;50.514;30.448;2022-09-29T08:07:33;4.20;;;2.08;;
49566;SDS011;35472;50.514;30.448;2022-09-29T08:09:58;2.60;;;2.30;;
49566;SDS011;35472;50.514;30.448;2022-09-29T08:12:24;3.90;;;2.30;;
49566;SDS011;35472;50.514;30.448;2022-09-29T08:14:51;2.53;;;2.13;;
49566;SDS011;35472;50.514;30.448;2022-09-29T08:17:16;3.05;;;2.15;;
49566;SDS011;35472;50.514;30.448;2022-09-29T08:19:42;3.15;;;1.85;;
49566;SDS011;35472;50.514;30.448;2022-09-29T08:22:07;3.17;;;1.77;;
49566;SDS011;35472;50.514;30.448;2022-09-29T08:24:32;5.20;;;2.58;;
49566;SDS011;35472;50.514;30.448;2022-09-29T08:27:00;5.40;;;2.42;;
49566;SDS011;35472;50.514;30.448;2022-09-29T08:29:26;2.67;;;1.63;;
49566;SDS011;35472;50.514;30.448;2022-09-29T08:31:52;3.83;;;2.13;;
49566;SDS011;35472;50.514;30.448;2022-09-29T08:34:19;2.63;;;2.15;;
49566;SDS011;35472;50.514;30.448;2022-09-29T08:36:44;3.28;;;1.67;;
49566;SDS011;35472;50.514;30.448;2022-09-29T08:39:10;3.00;;;1.92;;
49566;SDS011;35472;50.514;30.448;2022-09-29T08:41:53;2.20;;;2.00;;
49566;SDS011;35472;50.514;30.448;2022-09-29T08:44:41;3.08;;;2.40;;
49566;SDS011;35472;50.514;30.448;2022-09-29T08:47:26;3.97;;;2.47;;
49566;SDS011;35472;50.514;30.448;2022-09-29T08:49:56;4.00;;;2.30;;
49566;SDS011;35472;50.514;30.448;2022-09-29T08:52:27;4.68;;;2.45;;
49566;SDS011;35472;50.514;30.448;2022-09-29T08:54:58;4.10;;;2.17;;
49566;SDS011;35472;50.514;30.448;2022-09-29T08:57:32;9.27;;;2.67;;
49566;SDS011;35472;50.514;30.448;2022-09-29T08:59:59;5.93;;;2.97;;
49566;SDS011;35472;50.514;30.448;2022-09-29T09:02:29;3.45;;;2.72;;
49566;SDS011;35472;50.514;30.448;2022-09-29T09:07:40;7.72;;;2.40;;
49566;SDS011;35472;50.514;30.448;2022-09-29T09:13:16;4.88;;;2.20;;
49566;SDS011;35472;50.514;30.448;2022-09-29T09:16:01;3.92;;;2.22;;
49566;SDS011;35472;50.514;30.448;2022-09-29T09:18:44;6.38;;;2.53;;
49566;SDS011;35472;50.514;30.448;2022-09-29T09:21:41;5.57;;;2.42;;
49566;SDS011;35472;50.514;30.448;2022-09-29T09:26:43;5.60;;;3.30;;
49566;SDS011;35472;50.514;30.448;2022-09-29T09:29:24;7.97;;;2.83;;
49566;SDS011;35472;50.514;30.448;2022-09-29T09:31:56;5.88;;;3.45;;
49566;SDS011;35472;50.514;30.448;2022-09-29T09:37:17;7.43;;;3.13;;
49566;SDS011;35472;50.514;30.448;2022-09-29T09:39:47;12.40;;;3.40;;
49566;SDS011;35472;50.514;30.448;2022-09-29T09:42:25;5.70;;;3.00;;
49566;SDS011;35472;50.514;30.448;2022-09-29T09:44:58;6.03;;;3.17;;
49566;SDS011;35472;50.514;30.448;2022-09-29T09:47:48;3.42;;;2.63;;
49566;SDS011;35472;50.514;30.448;2022-09-29T09:50:19;7.38;;;3.60;;
49566;SDS011;35472;50.514;30.448;2022-09-29T09:52:48;2.55;;;1.80;;
49566;SDS011;35472;50.514;30.448;2022-09-29T09:55:18;2.65;;;2.05;;
49566;SDS011;35472;50.514;30.448;2022-09-29T10:00:45;4.43;;;2.60;;
49566;SDS011;35472;50.514;30.448;2022-09-29T10:03:11;4.60;;;2.50;;
49566;SDS011;35472;50.514;30.448;2022-09-29T10:05:40;4.57;;;2.33;;
49566;SDS011;35472;50.514;30.448;2022-09-29T10:08:11;4.88;;;2.40;;
49566;SDS011;35472;50.514;30.448;2022-09-29T10:10:42;5.37;;;2.37;;
49566;SDS011;35472;50.514;30.448;2022-09-29T10:13:11;13.13;;;2.28;;
49566;SDS011;35472;50.514;30.448;2022-09-29T10:15:50;2.25;;;1.83;;
49566;SDS011;35472;50.514;30.448;2022-09-29T10:18:42;4.50;;;1.90;;
49566;SDS011;35472;50.514;30.448;2022-09-29T10:21:20;5.15;;;2.00;;
49566;SDS011;35472;50.514;30.448;2022-09-29T10:23:50;3.47;;;1.70;;
49566;SDS011;35472;50.514;30.448;2022-09-29T10:26:43;2.30;;;1.83;;
49566;SDS011;35472;50.514;30.448;2022-09-29T10:31:58;1.70;;;1.52;;
49566;SDS011;35472;50.514;30.448;2022-09-29T10:34:26;2.75;;;1.58;;
49566;SDS011;35472;50.514;30.448;2022-09-29T10:36:53;8.77;;;2.30;;
49566;SDS011;35472;50.514;30.448;2022-09-29T10:39:29;2.65;;;1.10;;
49566;SDS011;35472;50.514;30.448;2022-09-29T10:42:14;1.83;;;1.55;;
49566;SDS011;35472;50.514;30.448;2022-09-29T10:44:52;2.20;;;1.02;;
49566;SDS011;35472;50.514;30.448;2022-09-29T10:47:39;2.20;;;1.23;;
49566;SDS011;35472;50.514;30.448;2022-09-29T10:50:33;1.77;;;1.27;;
49566;SDS011;35472;50.514;30.448;2022-09-29T10:53:05;2.20;;;1.17;;
49566;SDS011;35472;50.514;30.448;2022-09-29T10:55:49;2.40;;;1.13;;
49566;SDS011;35472;50.514;30.448;2022-09-29T10:58:19;1.25;;;1.00;;
49566;SDS011;35472;50.514;30.448;2022-09-29T11:03:51;1.40;;;1.30;;
49566;SDS011;35472;50.514;30.448;2022-09-29T11:06:23;1.30;;;1.20;;
49566;SDS011;35472;50.514;30.448;2022-09-29T11:11:35;10.82;;;9.13;;
49566;SDS011;35472;50.514;30.448;2022-09-29T11:14:02;1.65;;;1.55;;
49566;SDS011;35472;50.514;30.448;2022-09-29T11:18:54;8.52;;;1.90;;
49566;SDS011;35472;50.514;30.448;2022-09-29T11:21:32;3.40;;;1.20;;
49566;SDS011;35472;50.514;30.448;2022-09-29T11:30:04;2.83;;;1.27;;
49566;SDS011;35472;50.514;30.448;2022-09-29T11:35:43;3.72;;;1.50;;
49566;SDS011;35472;50.514;30.448;2022-09-29T11:43:59;3.25;;;1.40;;
49566;SDS011;35472;50.514;30.448;2022-09-29T11:58:10;2.85;;;1.60;;
49566;SDS011;35472;50.514;30.448;2022-09-29T12:01:08;2.38;;;1.33;;
49566;SDS011;35472;50.514;30.448;2022-09-29T12:03:40;4.13;;;1.85;;
49566;SDS011;35472;50.514;30.448;2022-09-29T12:06:36;1.27;;;1.05;;
49566;SDS011;35472;50.514;30.448;2022-09-29T12:09:35;1.80;;;1.55;;
49566;SDS011;35472;50.514;30.448;2022-09-29T12:18:13;4.20;;;1.20;;
49566;SDS011;35472;50.514;30.448;2022-09-29T12:20:44;4.40;;;1.52;;
49566;SDS011;35472;50.514;30.448;2022-09-29T12:23:13;6.35;;;1.42;;
49566;SDS011;35472;50.514;30.448;2022-09-29T12:25:49;3.40;;;1.35;;
49566;SDS011;35472;50.514;30.448;2022-09-29T12:28:21;4.70;;;2.35;;
49566;SDS011;35472;50.514;30.448;2022-09-29T12:30:52;2.28;;;1.98;;
49566;SDS011;35472;50.514;30.448;2022-09-29T12:33:25;3.38;;;1.90;;
49566;SDS011;35472;50.514;30.448;2022-09-29T12:38:51;2.03;;;1.45;;
49566;SDS011;35472;50.514;30.448;2022-09-29T12:41:24;2.25;;;1.73;;
49566;SDS011;35472;50.514;30.448;2022-09-29T12:47:04;3.05;;;1.63;;
49566;SDS011;35472;50.514;30.448;2022-09-29T12:52:23;2.33;;;1.73;;
49566;SDS011;35472;50.514;30.448;2022-09-29T12:54:54;2.63;;;1.50;;
49566;SDS011;35472;50.514;30.448;2022-09-29T12:57:29;2.80;;;1.73;;
49566;SDS011;35472;50.514;30.448;2022-09-29T13:00:01;4.03;;;1.45;;
49566;SDS011;35472;50.514;30.448;2022-09-29T13:11:02;4.07;;;1.77;;
49566;SDS011;35472;50.514;30.448;2022-09-29T13:13:55;4.53;;;2.00;;
49566;SDS011;35472;50.514;30.448;2022-09-29T13:27:31;1.58;;;1.48;;
49566;SDS011;35472;50.514;30.448;2022-09-29T13:33:00;6.40;;;1.88;;
49566;SDS011;35472;50.514;30.448;2022-09-29T13:35:42;4.50;;;1.73;;
49566;SDS011;35472;50.514;30.448;2022-09-29T13:38:15;2.33;;;2.13;;
49566;SDS011;35472;50.514;30.448;2022-09-29T13:46:32;4.20;;;1.85;;
49566;SDS011;35472;50.514;30.448;2022-09-29T14:00:02;2.55;;;1.83;;
49566;SDS011;35472;50.514;30.448;2022-09-29T14:02:39;4.53;;;2.75;;
49566;SDS011;35472;50.514;30.448;2022-09-29T14:07:49;3.53;;;2.33;;
49566;SDS011;35472;50.514;30.448;2022-09-29T14:10:38;3.38;;;1.80;;
49566;SDS011;35472;50.514;30.448;2022-09-29T14:16:00;1.88;;;1.55;;
49566;SDS011;35472;50.514;30.448;2022-09-29T14:18:35;5.10;;;1.95;;
49566;SDS011;35472;50.514;30.448;2022-09-29T14:21:09;2.95;;;2.35;;
49566;SDS011;35472;50.514;30.448;2022-09-29T14:23:45;2.45;;;1.70;;
49566;SDS011;35472;50.514;30.448;2022-09-29T14:31:57;2.85;;;2.08;;
49566;SDS011;35472;50.514;30.448;2022-09-29T14:34:27;6.20;;;1.80;;
49566;SDS011;35472;50.514;30.448;2022-09-29T14:36:57;3.53;;;1.98;;
49566;SDS011;35472;50.514;30.448;2022-09-29T14:39:25;4.32;;;1.95;;
49566;SDS011;35472;50.514;30.448;2022-09-29T14:41:51;2.67;;;1.75;;
49566;SDS011;35472;50.514;30.448;2022-09-29T14:44:24;2.42;;;1.80;;
49566;SDS011;35472;50.514;30.448;2022-09-29T14:50:00;10.68;;;2.35;;
49566;SDS011;35472;50.514;30.448;2022-09-29T15:03:45;3.00;;;2.00;;
49566;SDS011;35472;50.514;30.448;2022-09-29T15:06:16;2.33;;;2.03;;
49566;SDS011;35472;50.514;30.448;2022-09-29T15:08:57;2.20;;;2.00;;
49566;SDS011;35472;50.514;30.448;2022-09-29T15:11:31;3.22;;;2.13;;
49566;SDS011;35472;50.514;30.448;2022-09-29T15:14:15;6.03;;;3.03;;
49566;SDS011;35472;50.514;30.448;2022-09-29T15:20:14;4.43;;;2.20;;
49566;SDS011;35472;50.514;30.448;2022-09-29T15:25:45;3.35;;;2.13;;
49566;SDS011;35472;50.514;30.448;2022-09-29T15:28:13;3.72;;;2.15;;
49566;SDS011;35472;50.514;30.448;2022-09-29T15:30:42;5.43;;;2.03;;
49566;SDS011;35472;50.514;30.448;2022-09-29T15:33:22;2.22;;;2.03;;
49566;SDS011;35472;50.514;30.448;2022-09-29T15:35:56;2.55;;;2.22;;
49566;SDS011;35472;50.514;30.448;2022-09-29T15:40:53;3.80;;;1.88;;
49566;SDS011;35472;50.514;30.448;2022-09-29T15:43:24;3.78;;;2.30;;
49566;SDS011;35472;50.514;30.448;2022-09-29T15:45:56;3.08;;;2.42;;
49566;SDS011;35472;50.514;30.448;2022-09-29T15:48:24;3.42;;;2.67;;
49566;SDS011;35472;50.514;30.448;2022-09-29T15:50:51;2.55;;;2.35;;
49566;SDS011;35472;50.514;30.448;2022-09-29T15:53:20;3.20;;;2.40;;
49566;SDS011;35472;50.514;30.448;2022-09-29T15:55:56;8.50;;;3.03;;
49566;SDS011;35472;50.514;30.448;2022-09-29T16:03:28;3.00;;;2.78;;
49566;SDS011;35472;50.514;30.448;2022-09-29T16:08:29;4.47;;;3.17;;
49566;SDS011;35472;50.514;30.448;2022-09-29T16:10:59;3.85;;;2.97;;
49566;SDS011;35472;50.514;30.448;2022-09-29T16:13:30;7.65;;;6.05;;
49566;SDS011;35472;50.514;30.448;2022-09-29T16:21:52;8.93;;;3.60;;
49566;SDS011;35472;50.514;30.448;2022-09-29T16:24:26;7.07;;;3.03;;
49566;SDS011;35472;50.514;30.448;2022-09-29T16:26:54;5.10;;;2.90;;
49566;SDS011;35472;50.514;30.448;2022-09-29T16:29:25;6.13;;;3.05;;
49566;SDS011;35472;50.514;30.448;2022-09-29T16:31:52;5.30;;;2.92;;
49566;SDS011;35472;50.514;30.448;2022-09-29T16:37:04;4.88;;;3.90;;
49566;SDS011;35472;50.514;30.448;2022-09-29T16:39:42;7.43;;;4.68;;
49566;SDS011;35472;50.514;30.448;2022-09-29T16:42:28;6.85;;;4.03;;
49566;SDS011;35472;50.514;30.448;2022-09-29T16:44:53;5.17;;;3.37;;
49566;SDS011;35472;50.514;30.448;2022-09-29T16:47:21;6.72;;;3.50;;
49566;SDS011;35472;50.514;30.448;2022-09-29T16:49:52;9.73;;;4.30;;
49566;SDS011;35472;50.514;30.448;2022-09-29T16:52:27;7.43;;;3.35;;
49566;SDS011;35472;50.514;30.448;2022-09-29T16:55:10;6.03;;;3.60;;
49566;SDS011;35472;50.514;30.448;2022-09-29T16:57:54;9.45;;;5.00;;
49566;SDS011;35472;50.514;30.448;2022-09-29T17:00:25;8.35;;;4.50;;
49566;SDS011;35472;50.514;30.448;2022-09-29T17:02:51;7.97;;;4.80;;
49566;SDS011;35472;50.514;30.448;2022-09-29T17:05:17;6.35;;;4.55;;
49566;SDS011;35472;50.514;30.448;2022-09-29T17:07:43;6.53;;;5.13;;
49566;SDS011;35472;50.514;30.448;2022-09-29T17:10:14;6.28;;;4.53;;
49566;SDS011;35472;50.514;30.448;2022-09-29T17:12:42;12.00;;;6.18;;
49566;SDS011;35472;50.514;30.448;2022-09-29T17:15:12;6.70;;;4.47;;
49566;SDS011;35472;50.514;30.448;2022-09-29T17:17:41;7.65;;;4.10;;
49566;SDS011;35472;50.514;30.448;2022-09-29T17:20:12;9.25;;;5.63;;
49566;SDS011;35472;50.514;30.448;2022-09-29T17:22:39;5.80;;;4.57;;
49566;SDS011;35472;50.514;30.448;2022-09-29T17:25:04;6.65;;;4.63;;
49566;SDS011;35472;50.514;30.448;2022-09-29T17:27:30;7.90;;;4.80;;
49566;SDS011;35472;50.514;30.448;2022-09-29T17:30:16;10.88;;;5.20;;
49566;SDS011;35472;50.514;30.448;2022-09-29T17:32:45;6.63;;;4.90;;
49566;SDS011;35472;50.514;30.448;2022-09-29T17:35:15;12.35;;;4.65;;
49566;SDS011;35472;50.514;30.448;2022-09-29T17:37:41;5.72;;;3.88;;
49566;SDS011;35472;50.514;30.448;2022-09-29T17:42:58;6.38;;;4.75;;
49566;SDS011;35472;50.514;30.448;2022-09-29T17:45:24;5.22;;;4.43;;
49566;SDS011;35472;50.514;30.448;2022-09-29T17:47:51;7.35;;;4.93;;
49566;SDS011;35472;50.514;30.448;2022-09-29T17:52:54;9.65;;;4.75;;
49566;SDS011;35472;50.514;30.448;2022-09-29T17:55:20;9.15;;;4.25;;
49566;SDS011;35472;50.514;30.448;2022-09-29T17:57:49;5.40;;;4.13;;
49566;SDS011;35472;50.514;30.448;2022-09-29T18:00:20;6.00;;;4.40;;
49566;SDS011;35472;50.514;30.448;2022-09-29T18:02:46;5.40;;;4.68;;